createdAt,value
2018-07-05T00:01:16.462Z,67.24
2018-07-05T00:03:56.062Z,67.05
2018-07-05T00:06:35.725Z,66.57
2018-07-05T00:09:16.413Z,67.19
2018-07-05T00:11:56.115Z,67.95
2018-07-05T00:14:35.758Z,68.71
2018-07-05T00:17:15.273Z,68.34
2018-07-05T00:19:56.141Z,68.33
2018-07-05T00:22:35.732Z,68.56
2018-07-05T00:25:16.233Z,68.91
2018-07-05T00:27:55.942Z,69.59
2018-07-05T00:30:35.846Z,68.76
2018-07-05T00:33:15.469Z,68.80
2018-07-05T00:35:55.522Z,67.96
2018-07-05T00:38:35.210Z,68.25
2018-07-05T00:41:15.117Z,67.42
2018-07-05T00:43:54.777Z,67.68
2018-07-05T00:46:34.473Z,67.88
2018-07-05T00:49:14.090Z,68.14
2018-07-05T00:51:53.777Z,69.10
2018-07-05T00:54:33.449Z,69.44
2018-07-05T00:57:13.020Z,68.82
2018-07-05T00:59:54.528Z,68.10
2018-07-05T01:02:34.062Z,67.82
2018-07-05T01:05:13.561Z,68.08
2018-07-05T01:07:53.104Z,68.92
2018-07-05T01:10:32.852Z,69.84
2018-07-05T01:13:12.461Z,69.36
2018-07-05T01:15:52.009Z,69.88
2018-07-05T01:18:31.689Z,69.63
2018-07-05T01:21:11.221Z,70.32
2018-07-05T01:23:50.865Z,70.43
2018-07-05T01:26:30.569Z,70.70
2018-07-05T01:29:10.265Z,70.67
2018-07-05T01:31:50.914Z,70.52
2018-07-05T01:34:30.697Z,70.95
2018-07-05T01:37:10.345Z,70.62
2018-07-05T01:39:50.269Z,70.13
2018-07-05T01:42:29.755Z,70.00
2018-07-05T01:45:09.332Z,70.29
2018-07-05T01:47:49.185Z,70.49
2018-07-05T01:50:28.764Z,71.15
2018-07-05T01:53:08.469Z,71.26
2018-07-05T01:55:48.152Z,71.04
2018-07-05T01:58:27.833Z,71.94
2018-07-05T02:01:07.552Z,72.09
2018-07-05T02:03:47.218Z,72.30
2018-07-05T02:06:26.919Z,71.49
2018-07-05T02:09:06.501Z,71.74
2018-07-05T02:11:46.077Z,72.17
2018-07-05T02:14:25.795Z,72.92
2018-07-05T02:17:05.508Z,73.13
2018-07-05T02:19:44.870Z,72.86
2018-07-05T02:22:24.533Z,73.11
2018-07-05T02:25:04.232Z,72.64
2018-07-05T02:27:43.926Z,73.65
2018-07-05T02:30:23.608Z,73.89
2018-07-05T02:33:03.185Z,74.29
2018-07-05T02:35:42.721Z,74.09
2018-07-05T02:38:23.989Z,73.17
2018-07-05T02:41:04.381Z,72.91
2018-07-05T02:43:44.033Z,72.14
2018-07-05T02:46:23.797Z,72.58
2018-07-05T02:49:03.374Z,74.29
2018-07-05T02:51:43.049Z,73.88
2018-07-05T02:54:22.593Z,74.57
2018-07-05T02:57:02.340Z,73.34
2018-07-05T02:59:41.949Z,73.17
2018-07-05T03:02:21.618Z,73.40
2018-07-05T03:05:01.324Z,72.28
2018-07-05T03:07:40.941Z,73.12
2018-07-05T03:10:20.533Z,73.17
2018-07-05T03:13:00.050Z,73.11
2018-07-05T03:15:40.513Z,72.87
2018-07-05T03:18:20.006Z,72.42
2018-07-05T03:20:59.549Z,73.15
2018-07-05T03:23:39.186Z,72.98
2018-07-05T03:26:18.708Z,72.44
2018-07-05T03:28:58.352Z,72.09
2018-07-05T03:31:39.016Z,71.85
2018-07-05T03:34:18.685Z,72.55
2018-07-05T03:36:58.301Z,72.68
2018-07-05T03:39:37.918Z,72.41
2018-07-05T03:42:17.442Z,72.69
2018-07-05T03:44:57.250Z,72.97
2018-07-05T03:47:37.799Z,72.30
2018-07-05T03:50:17.541Z,71.98
2018-07-05T03:52:57.193Z,71.92
2018-07-05T03:55:36.698Z,72.92
2018-07-05T03:58:16.382Z,72.23
2018-07-05T04:00:57.113Z,72.13
2018-07-05T04:03:36.486Z,72.70
2018-07-05T04:06:15.989Z,73.02
2018-07-05T04:08:55.569Z,72.20
2018-07-05T04:11:36.218Z,72.37
2018-07-05T04:14:15.862Z,71.76
2018-07-05T04:16:55.482Z,72.62
2018-07-05T04:19:39.481Z,72.04
2018-07-05T04:22:19.079Z,72.02
2018-07-05T04:24:58.835Z,71.17
2018-07-05T04:27:38.297Z,71.60
2018-07-05T04:30:17.981Z,71.93
2018-07-05T04:32:57.570Z,71.69
2018-07-05T04:35:37.313Z,71.16
2018-07-05T04:38:17.033Z,71.48
2018-07-05T04:40:56.701Z,71.04
2018-07-05T04:43:37.257Z,70.42
2018-07-05T04:46:17.085Z,69.48
2018-07-05T04:48:56.855Z,69.57
2018-07-05T04:51:36.370Z,69.54
2018-07-05T04:54:15.892Z,70.44
2018-07-05T04:56:56.632Z,70.00
2018-07-05T04:59:37.156Z,70.65
2018-07-05T05:02:18.036Z,69.45
2018-07-05T05:04:57.667Z,69.55
2018-07-05T05:07:37.432Z,69.52
2018-07-05T05:10:18.082Z,69.90
2018-07-05T05:12:57.817Z,70.20
2018-07-05T05:15:37.537Z,70.63
2018-07-05T05:18:17.317Z,70.52
2018-07-05T05:20:56.849Z,70.29
2018-07-05T05:23:36.593Z,71.03
2018-07-05T05:26:16.308Z,71.63
2018-07-05T05:28:55.882Z,71.05
2018-07-05T05:31:35.528Z,71.13
2018-07-05T05:34:15.089Z,71.15
2018-07-05T05:36:54.672Z,71.73
2018-07-05T05:39:34.261Z,70.92
2018-07-05T05:42:13.969Z,71.17
2018-07-05T05:44:53.632Z,70.97
2018-07-05T05:47:33.239Z,71.23
2018-07-05T05:50:12.697Z,70.83
2018-07-05T05:52:52.217Z,71.06
2018-07-05T05:55:31.884Z,70.66
2018-07-05T05:58:11.283Z,70.31
2018-07-05T06:00:50.753Z,69.63
2018-07-05T06:03:30.349Z,69.68
2018-07-05T06:06:09.713Z,69.80
2018-07-05T06:08:49.413Z,68.81
2018-07-05T06:11:28.910Z,68.61
2018-07-05T06:14:08.612Z,69.44
2018-07-05T06:16:48.245Z,69.55
2018-07-05T06:19:27.809Z,69.33
2018-07-05T06:22:07.353Z,69.75
2018-07-05T06:24:46.816Z,69.42
2018-07-05T06:27:26.440Z,69.83
2018-07-05T06:30:06.550Z,70.37
2018-07-05T06:32:45.970Z,71.04
2018-07-05T06:35:25.570Z,70.16
2018-07-05T06:38:05.105Z,69.81
2018-07-05T06:40:44.605Z,68.54
2018-07-05T06:43:24.087Z,68.31
2018-07-05T06:46:05.853Z,70.10
2018-07-05T06:48:45.462Z,69.64
2018-07-05T06:51:25.921Z,70.40
2018-07-05T06:54:05.539Z,70.59
2018-07-05T06:56:45.061Z,71.58
2018-07-05T06:59:24.601Z,70.60
2018-07-05T07:02:04.125Z,70.27
2018-07-05T07:04:43.565Z,69.98
2018-07-05T07:07:23.117Z,71.33
2018-07-05T07:10:02.724Z,71.81
2018-07-05T07:12:42.332Z,70.76
2018-07-05T07:15:23.105Z,69.14
2018-07-05T07:18:02.805Z,68.63
2018-07-05T07:20:42.454Z,68.72
2018-07-05T07:23:22.146Z,68.03
2018-07-05T07:26:01.722Z,67.67
2018-07-05T07:28:41.277Z,67.26
2018-07-05T07:31:20.978Z,66.21
2018-07-05T07:34:00.531Z,67.33
2018-07-05T07:36:40.161Z,68.04
2018-07-05T07:39:19.793Z,68.67
2018-07-05T07:41:48.261Z,68.64
2018-07-05T07:44:18.523Z,69.98
2018-07-05T07:46:46.445Z,68.78
2018-07-05T07:49:13.905Z,67.32
2018-07-05T07:51:41.058Z,66.45
2018-07-05T07:54:08.195Z,66.45
2018-07-05T07:56:35.342Z,66.29
2018-07-05T07:59:02.477Z,65.96
2018-07-05T08:01:29.632Z,66.63
2018-07-05T08:03:56.794Z,66.57
2018-07-05T08:06:23.945Z,66.18
2018-07-05T08:08:51.080Z,64.46
2018-07-05T08:11:18.228Z,63.22
2018-07-05T08:13:45.373Z,63.08
2018-07-05T08:16:12.522Z,64.01
2018-07-05T08:18:39.684Z,64.73
2018-07-05T08:21:06.829Z,65.54
2018-07-05T08:23:33.961Z,66.41
2018-07-05T08:26:01.109Z,67.17
2018-07-05T08:28:28.248Z,68.04
2018-07-05T08:30:55.414Z,67.61
2018-07-05T08:33:22.568Z,68.23
2018-07-05T08:35:49.710Z,69.72
2018-07-05T08:38:16.848Z,69.31
2018-07-05T08:40:43.996Z,70.39
2018-07-05T08:43:11.136Z,70.17
2018-07-05T08:45:38.288Z,68.36
2018-07-05T08:48:05.431Z,67.56
2018-07-05T08:50:32.590Z,67.60
2018-07-05T08:52:59.762Z,67.71
2018-07-05T08:55:26.896Z,69.21
2018-07-05T08:57:54.053Z,69.46
2018-07-05T09:00:21.206Z,69.71
2018-07-05T09:02:48.374Z,69.31
2018-07-05T09:05:19.139Z,70.16
2018-07-05T09:07:46.233Z,69.67
2018-07-05T09:10:13.369Z,69.13
2018-07-05T09:12:40.542Z,68.18
2018-07-05T09:15:07.680Z,67.54
2018-07-05T09:17:34.900Z,66.04
2018-07-05T09:20:01.992Z,66.49
2018-07-05T09:22:29.153Z,66.99
2018-07-05T09:24:56.301Z,67.81
2018-07-05T09:27:23.469Z,67.54
2018-07-05T09:29:50.602Z,67.47
2018-07-05T09:32:17.768Z,66.31
2018-07-05T09:34:44.917Z,65.50
2018-07-05T09:37:12.131Z,64.96
2018-07-05T09:39:39.252Z,63.90
2018-07-05T09:42:06.392Z,63.86
2018-07-05T09:44:33.561Z,64.72
2018-07-05T09:47:01.030Z,64.69
2018-07-05T09:49:28.146Z,65.08
2018-07-05T09:51:55.285Z,65.30
2018-07-05T09:54:22.457Z,65.74
2018-07-05T09:56:49.601Z,66.24
2018-07-05T09:59:16.777Z,66.05
2018-07-05T10:01:43.913Z,65.42
2018-07-05T10:04:11.085Z,65.31
2018-07-05T10:06:38.224Z,65.55
2018-07-05T10:09:06.013Z,65.30
2018-07-05T10:11:33.493Z,64.47
2018-07-05T10:14:00.873Z,62.16
2018-07-05T10:16:28.306Z,61.27
2018-07-05T10:18:55.470Z,60.30
2018-07-05T10:21:22.617Z,63.86
2018-07-05T10:23:49.800Z,66.06
2018-07-05T10:26:16.949Z,67.07
2018-07-05T10:28:56.577Z,65.77
2018-07-05T10:31:36.156Z,64.64
2018-07-05T10:34:03.419Z,63.86
2018-07-05T10:36:30.565Z,62.90
2018-07-05T10:38:57.709Z,61.58
2018-07-05T10:41:37.300Z,60.75
2018-07-05T10:44:16.798Z,60.61
2018-07-05T10:46:56.201Z,59.61
2018-07-05T10:49:35.837Z,60.15
2018-07-05T10:52:15.577Z,58.34
2018-07-05T10:54:55.225Z,59.38
2018-07-05T10:57:34.917Z,57.43
2018-07-05T11:00:14.653Z,57.74
2018-07-05T11:02:54.349Z,58.52
2018-07-05T11:05:34.209Z,59.85
2018-07-05T11:08:13.887Z,61.32
2018-07-05T11:10:53.445Z,61.73
2018-07-05T11:13:32.941Z,61.95
2018-07-05T11:16:12.467Z,61.66
2018-07-05T11:18:52.103Z,61.89
2018-07-05T11:21:31.721Z,59.85
2018-07-05T11:24:11.290Z,61.69
2018-07-05T11:26:50.781Z,61.20
2018-07-05T11:29:30.328Z,60.58
2018-07-05T11:32:10.118Z,61.43
2018-07-05T11:34:50.875Z,62.38
2018-07-05T11:37:30.481Z,62.86
2018-07-05T11:40:10.194Z,61.50
2018-07-05T11:42:49.830Z,60.82
2018-07-05T11:45:29.353Z,59.64
2018-07-05T11:48:08.757Z,59.69
2018-07-05T11:50:48.285Z,59.42
2018-07-05T11:53:27.737Z,57.48
2018-07-05T11:56:07.413Z,59.32
2018-07-05T11:58:47.083Z,58.03
2018-07-05T12:01:26.624Z,58.77
2018-07-05T12:04:06.323Z,57.70
2018-07-05T12:06:46.038Z,57.72
2018-07-05T12:09:26.777Z,57.84
2018-07-05T12:12:06.360Z,57.96
2018-07-05T12:14:46.049Z,58.17
2018-07-05T12:17:25.565Z,58.93
2018-07-05T12:20:06.202Z,59.18
2018-07-05T12:22:45.706Z,60.09
2018-07-05T12:25:25.246Z,59.01
2018-07-05T12:28:04.965Z,59.48
2018-07-05T12:30:44.621Z,59.05
2018-07-05T12:33:24.133Z,59.09
2018-07-05T12:36:03.662Z,59.53
2018-07-05T12:38:43.193Z,58.91
2018-07-05T12:41:22.733Z,58.43
2018-07-05T12:44:02.277Z,58.55
2018-07-05T12:46:41.964Z,58.40
2018-07-05T12:49:21.733Z,58.01
2018-07-05T12:52:01.337Z,58.01
2018-07-05T12:54:40.952Z,59.03
2018-07-05T12:57:20.515Z,59.12
2018-07-05T13:00:00.162Z,58.87
2018-07-05T13:02:39.753Z,58.03
2018-07-05T13:05:19.325Z,57.93
2018-07-05T13:07:58.830Z,57.46
2018-07-05T13:10:38.665Z,56.69
2018-07-05T13:13:18.256Z,55.86
2018-07-05T13:15:58.770Z,57.15
2018-07-05T13:18:38.429Z,60.01
2018-07-05T13:21:18.098Z,59.85
2018-07-05T13:23:57.821Z,58.31
2018-07-05T13:26:37.459Z,57.53
2018-07-05T13:29:17.049Z,56.54
2018-07-05T13:31:56.532Z,58.80
2018-07-05T13:34:36.302Z,60.04
2018-07-05T13:37:15.884Z,61.54
2018-07-05T13:40:01.666Z,61.25
2018-07-05T13:42:50.612Z,60.83
2018-07-05T13:45:39.454Z,59.76
2018-07-05T13:48:24.942Z,58.67
2018-07-05T13:51:12.668Z,60.33
2018-07-05T13:54:00.859Z,59.84
2018-07-05T13:56:40.654Z,59.24
2018-07-05T13:59:20.177Z,58.58
2018-07-05T14:01:59.721Z,59.31
2018-07-05T14:04:39.288Z,59.77
2018-07-05T14:07:18.909Z,61.14
2018-07-05T14:09:58.673Z,60.83
2018-07-05T14:12:38.181Z,60.73
2018-07-05T14:15:18.616Z,61.24
2018-07-05T14:17:58.072Z,60.00
2018-07-05T14:20:39.537Z,59.44
2018-07-05T14:23:19.032Z,59.19
2018-07-05T14:25:58.453Z,59.68
2018-07-05T14:28:38.036Z,60.68
2018-07-05T14:31:17.594Z,61.21
2018-07-05T14:33:57.191Z,60.69
2018-07-05T14:36:36.865Z,60.17
2018-07-05T14:39:16.418Z,61.78
2018-07-05T14:41:55.985Z,61.86
2018-07-05T14:44:35.650Z,61.13
2018-07-05T14:47:15.145Z,60.86
2018-07-05T14:49:56.661Z,61.96
2018-07-05T14:52:36.205Z,62.07
2018-07-05T14:55:17.661Z,61.20
2018-07-05T14:57:57.239Z,60.59
2018-07-05T15:00:36.605Z,60.88
2018-07-05T15:03:16.134Z,61.29
2018-07-05T15:05:55.624Z,61.46
2018-07-05T15:08:35.173Z,61.26
2018-07-05T15:11:14.941Z,60.07
2018-07-05T15:13:54.753Z,60.73
2018-07-05T15:16:35.382Z,59.93
2018-07-05T15:19:15.085Z,60.54
2018-07-05T15:21:54.753Z,60.50
2018-07-05T15:24:34.368Z,60.37
2018-07-05T15:27:14.049Z,60.02
2018-07-05T15:29:53.589Z,59.97
2018-07-05T15:32:33.245Z,59.98
2018-07-05T15:35:12.769Z,59.90
2018-07-05T15:37:52.485Z,61.18
2018-07-05T15:40:32.150Z,61.98
2018-07-05T15:43:11.820Z,61.33
2018-07-05T15:45:51.590Z,59.78
2018-07-05T15:48:31.262Z,59.83
2018-07-05T15:51:10.825Z,59.61
2018-07-05T15:53:50.777Z,59.87
2018-07-05T15:56:32.761Z,60.66
2018-07-05T15:59:14.316Z,60.99
2018-07-05T16:01:53.993Z,61.30
2018-07-05T16:04:33.666Z,61.58
2018-07-05T16:07:13.170Z,61.37
2018-07-05T16:09:52.848Z,61.16
2018-07-05T16:12:32.545Z,61.54
2018-07-05T16:15:12.249Z,60.84
2018-07-05T16:17:51.873Z,61.33
2018-07-05T16:20:31.472Z,61.89
2018-07-05T16:23:11.109Z,61.36
2018-07-05T16:25:50.580Z,62.52
2018-07-05T16:28:30.116Z,62.93
2018-07-05T16:31:09.818Z,64.31
2018-07-05T16:33:49.537Z,64.63
2018-07-05T16:36:29.232Z,64.80
2018-07-05T16:39:09.553Z,64.44
2018-07-05T16:41:50.143Z,64.61
2018-07-05T16:44:29.673Z,64.26
2018-07-05T16:47:09.137Z,63.88
2018-07-05T16:49:48.741Z,63.50
2018-07-05T16:52:28.372Z,63.21
2018-07-05T16:55:07.848Z,63.00
2018-07-05T16:57:47.669Z,63.17
2018-07-05T17:00:27.329Z,63.02
2018-07-05T17:03:07.038Z,62.43
2018-07-05T17:05:46.753Z,62.30
2018-07-05T17:08:26.361Z,63.00
2018-07-05T17:11:05.801Z,63.18
2018-07-05T17:13:45.433Z,62.36
2018-07-05T17:16:24.998Z,62.79
2018-07-05T17:19:04.633Z,62.51
2018-07-05T17:21:44.175Z,62.78
2018-07-05T17:24:23.597Z,63.68
2018-07-05T17:27:03.081Z,63.87
2018-07-05T17:29:42.560Z,64.69
2018-07-05T17:32:22.233Z,65.50
2018-07-05T17:35:01.949Z,66.20
2018-07-05T17:37:42.313Z,66.47
2018-07-05T17:40:21.749Z,66.94
2018-07-05T17:43:01.303Z,66.17
2018-07-05T17:45:40.770Z,66.78
2018-07-05T17:48:20.298Z,66.03
2018-07-05T17:50:59.842Z,66.26
2018-07-05T17:53:39.301Z,65.37
2018-07-05T17:56:18.914Z,65.03
2018-07-05T17:58:58.630Z,65.14
2018-07-05T18:01:38.285Z,65.17
2018-07-05T18:04:17.939Z,65.00
2018-07-05T18:06:57.553Z,65.74
2018-07-05T18:09:38.366Z,66.03
2018-07-05T18:12:17.985Z,66.15
2018-07-05T18:14:57.757Z,66.33
2018-07-05T18:17:37.417Z,66.00
2018-07-05T18:20:16.947Z,65.68
2018-07-05T18:22:56.471Z,65.65
2018-07-05T18:25:35.881Z,65.83
2018-07-05T18:28:15.420Z,66.16
2018-07-05T18:30:54.993Z,66.04
2018-07-05T18:33:34.454Z,66.72
2018-07-05T18:36:14.053Z,67.35
2018-07-05T18:38:53.573Z,67.77
2018-07-05T18:41:33.059Z,68.11
2018-07-05T18:44:12.674Z,68.63
2018-07-05T18:46:52.361Z,69.05
2018-07-05T18:49:31.961Z,70.11
2018-07-05T18:52:11.661Z,70.81
2018-07-05T18:54:51.356Z,72.04
2018-07-05T18:57:31.089Z,71.14
2018-07-05T19:00:10.637Z,71.90
2018-07-05T19:02:50.228Z,71.47
2018-07-05T19:05:29.850Z,71.14
2018-07-05T19:08:09.518Z,70.40
2018-07-05T19:10:49.239Z,69.78
2018-07-05T19:13:28.870Z,69.52
2018-07-05T19:16:08.501Z,69.10
2018-07-05T19:18:47.938Z,68.99
2018-07-05T19:21:27.446Z,68.35
2018-07-05T19:24:06.937Z,69.11
2018-07-05T19:26:46.589Z,68.96
2018-07-05T19:29:26.249Z,68.66
2018-07-05T19:32:05.825Z,68.57
2018-07-05T19:34:45.445Z,68.89
2018-07-05T19:37:25.020Z,69.63
2018-07-05T19:40:04.541Z,69.25
2018-07-05T19:42:44.127Z,69.34
2018-07-05T19:45:23.796Z,69.80
2018-07-05T19:48:03.506Z,69.81
2018-07-05T19:50:43.114Z,69.48
2018-07-05T19:53:22.828Z,69.13
2018-07-05T19:56:02.599Z,68.99
2018-07-05T19:58:42.377Z,69.04
2018-07-05T20:01:22.106Z,69.25
2018-07-05T20:04:01.822Z,68.61
2018-07-05T20:06:41.554Z,69.15
2018-07-05T20:09:21.322Z,69.55
2018-07-05T20:12:06.784Z,70.44
2018-07-05T20:14:46.618Z,70.36
2018-07-05T20:17:27.280Z,69.58
2018-07-05T20:20:07.074Z,70.13
2018-07-05T20:22:46.586Z,70.84
2018-07-05T20:25:26.334Z,70.69
2018-07-05T20:28:05.993Z,70.95
2018-07-05T20:30:45.525Z,70.66
2018-07-05T20:33:24.981Z,70.55
2018-07-05T20:36:04.634Z,70.28
2018-07-05T20:38:44.393Z,70.90
2018-07-05T20:41:23.927Z,71.53
2018-07-05T20:44:03.567Z,71.14
2018-07-05T20:46:43.305Z,71.29
2018-07-05T20:49:22.945Z,71.56
2018-07-05T20:52:02.705Z,71.66
2018-07-05T20:54:42.281Z,72.12
2018-07-05T20:57:21.865Z,72.30
2018-07-05T21:00:01.414Z,72.85
2018-07-05T21:02:41.131Z,72.65
2018-07-05T21:05:20.824Z,72.36
2018-07-05T21:08:00.229Z,72.94
2018-07-05T21:10:39.700Z,73.25
2018-07-05T21:13:19.204Z,73.85
2018-07-05T21:15:58.748Z,73.34
2018-07-05T21:18:38.322Z,73.74
2018-07-05T21:21:17.820Z,73.23
2018-07-05T21:23:57.589Z,73.88
2018-07-05T21:26:37.149Z,74.01
2018-07-05T21:29:16.766Z,73.42
2018-07-05T21:31:56.337Z,73.51
2018-07-05T21:34:35.940Z,73.80
2018-07-05T21:37:15.705Z,73.38
2018-07-05T21:39:55.869Z,73.53
2018-07-05T21:42:35.517Z,74.20
2018-07-05T21:45:15.205Z,74.12
2018-07-05T21:47:54.924Z,74.55
2018-07-05T21:50:34.536Z,74.47
2018-07-05T21:53:14.157Z,74.87
2018-07-05T21:55:53.837Z,74.77
2018-07-05T21:58:37.222Z,74.21
2018-07-05T22:01:16.906Z,74.51
2018-07-05T22:03:56.409Z,74.18
2018-07-05T22:06:36.145Z,73.91
2018-07-05T22:09:15.822Z,73.22
2018-07-05T22:11:55.410Z,73.16
2018-07-05T22:14:34.959Z,72.64
2018-07-05T22:17:20.090Z,72.48
2018-07-05T22:20:05.274Z,73.56
2018-07-05T22:22:50.264Z,73.17
2018-07-05T22:25:35.305Z,73.72
2018-07-05T22:28:20.221Z,73.18
2018-07-05T22:31:05.453Z,72.88
2018-07-05T22:33:45.221Z,72.63
2018-07-05T22:36:24.920Z,72.86
2018-07-05T22:39:04.725Z,72.61
2018-07-05T22:41:44.405Z,72.96
2018-07-05T22:44:23.900Z,73.23
2018-07-05T22:47:03.614Z,72.59
2018-07-05T22:49:43.015Z,73.76
2018-07-05T22:52:22.629Z,73.70
2018-07-05T22:55:02.152Z,73.79
2018-07-05T22:57:41.745Z,72.80
2018-07-05T23:00:21.325Z,72.89
2018-07-05T23:03:01.856Z,73.67
2018-07-05T23:05:41.288Z,73.23
2018-07-05T23:08:20.730Z,72.83
2018-07-05T23:11:00.289Z,72.34
2018-07-05T23:13:39.877Z,71.27
2018-07-05T23:16:19.601Z,70.06
2018-07-05T23:18:59.238Z,69.51
2018-07-05T23:21:38.769Z,69.39
2018-07-05T23:24:18.345Z,68.24
2018-07-05T23:26:58.092Z,67.62
2018-07-05T23:29:38.009Z,66.31
2018-07-05T23:32:17.643Z,66.87
2018-07-05T23:34:57.193Z,66.65
2018-07-05T23:37:37.530Z,66.39
2018-07-05T23:40:17.125Z,66.42
2018-07-05T23:42:56.765Z,66.84
2018-07-05T23:45:36.782Z,67.13
2018-07-05T23:48:16.445Z,67.37
2018-07-05T23:50:56.409Z,67.03
2018-07-05T23:53:35.913Z,67.29
2018-07-05T23:56:15.739Z,67.83
2018-07-05T23:58:55.300Z,68.39
